Time;durP1;ratioP1;P1;durP2;ratioP2;P2;SDS_P1;SDS_P2;PMS_P1;PMS_P2;Temp;Humidity;BMP_temperature;BMP_pressure;BME280_temperature;BME280_humidity;BME280_pressure;Samples;Min_cycle;Max_cycle;Signal;HPM_P1;HPM_P2
2022/07/07 00:01:44;;;;;;;12.07;4.95;;;16.70;99.90;;;;;;5073279;27;20043;-89
2022/07/07 00:04:10;;;;;;;8.75;4.80;;;16.70;99.90;;;;;;5058251;27;20039;-90
2022/07/07 00:06:36;;;;;;;12.10;4.05;;;16.70;99.90;;;;;;5072974;27;20039;-89
2022/07/07 00:09:03;;;;;;;6.70;4.13;;;16.70;99.90;;;;;;5091711;27;20050;-88
2022/07/07 00:11:29;;;;;;;11.00;4.47;;;16.70;99.90;;;;;;5090515;28;20040;-90
2022/07/07 00:13:56;;;;;;;6.95;3.28;;;16.70;99.90;;;;;;5090444;27;20049;-90
2022/07/07 00:16:22;;;;;;;10.48;4.10;;;16.70;99.90;;;;;;5075375;28;20083;-90
2022/07/07 00:18:49;;;;;;;4.65;3.22;;;16.70;99.90;;;;;;5089905;28;20569;-89
2022/07/07 00:21:15;;;;;;;5.95;3.38;;;16.60;99.90;;;;;;5093139;28;20047;-90
2022/07/07 00:23:41;;;;;;;6.45;2.97;;;16.70;99.90;;;;;;5110823;28;20047;-89
2022/07/07 00:26:07;;;;;;;6.40;3.42;;;16.70;99.90;;;;;;5079381;28;20410;-90
2022/07/07 00:28:33;;;;;;;7.68;3.22;;;16.70;99.90;;;;;;5090708;28;20039;-88
2022/07/07 00:30:58;;;;;;;8.27;3.20;;;16.70;99.90;;;;;;5090433;28;20546;-87
2022/07/07 00:33:24;;;;;;;5.72;2.75;;;16.70;99.90;;;;;;5091558;28;20558;-89
2022/07/07 00:35:51;;;;;;;6.35;2.85;;;16.70;99.90;;;;;;5089594;28;20081;-88
2022/07/07 00:38:17;;;;;;;5.97;3.22;;;17.00;99.90;;;;;;5108194;28;20521;-87
2022/07/07 00:40:42;;;;;;;5.80;2.72;;;16.70;99.90;;;;;;5072768;28;20043;-87
2022/07/07 00:43:08;;;;;;;9.15;3.15;;;16.60;99.90;;;;;;5107790;28;20043;-86
2022/07/07 00:45:34;;;;;;;5.75;2.58;;;16.60;99.90;;;;;;5089771;28;20035;-86
2022/07/07 00:47:59;;;;;;;8.23;2.90;;;16.60;99.90;;;;;;5056555;28;20066;-86
2022/07/07 00:50:25;;;;;;;5.28;2.67;;;16.50;99.90;;;;;;5091101;28;20035;-87
2022/07/07 00:52:52;;;;;;;2.88;1.95;;;16.50;99.90;;;;;;5073015;28;20130;-86
2022/07/07 00:55:18;;;;;;;4.60;2.10;;;16.60;99.90;;;;;;5091351;27;20375;-87
2022/07/07 00:57:44;;;;;;;3.90;1.27;;;16.30;99.90;;;;;;5058527;27;20490;-87
2022/07/07 01:00:13;;;;;;;4.35;1.48;;;16.30;99.90;;;;;;5061155;27;20039;-87
2022/07/07 01:02:41;;;;;;;3.72;1.63;;;16.20;99.90;;;;;;5110161;27;20031;-87
2022/07/07 01:05:08;;;;;;;6.90;1.60;;;16.20;99.90;;;;;;5093681;27;20054;-87
2022/07/07 01:07:35;;;;;;;5.97;1.65;;;16.20;99.90;;;;;;5111361;27;20124;-86
2022/07/07 01:10:03;;;;;;;5.30;1.40;;;16.20;99.90;;;;;;5092473;27;20138;-87
2022/07/07 01:12:38;;;;;;;2.47;1.70;;;16.20;99.90;;;;;;5094115;27;20039;-87
2022/07/07 01:15:05;;;;;;;3.45;1.35;;;16.10;99.90;;;;;;5093105;27;20043;-88
2022/07/07 01:17:31;;;;;;;3.28;1.83;;;16.10;99.90;;;;;;5094672;27;20485;-87
2022/07/07 01:19:57;;;;;;;5.47;2.03;;;16.00;99.90;;;;;;5092964;27;20118;-87
2022/07/07 01:22:27;;;;;;;5.03;1.85;;;16.00;99.90;;;;;;5110283;27;20049;-87
2022/07/07 01:24:53;;;;;;;3.97;1.40;;;16.00;99.90;;;;;;5093904;27;20047;-86
2022/07/07 01:27:20;;;;;;;3.88;1.75;;;16.00;99.90;;;;;;5092120;27;20405;-87
2022/07/07 01:29:48;;;;;;;2.80;1.70;;;16.10;99.90;;;;;;5077882;27;20047;-87
2022/07/07 01:32:14;;;;;;;7.38;2.10;;;16.00;99.90;;;;;;5092261;27;20050;-86
2022/07/07 01:34:42;;;;;;;4.63;1.80;;;16.00;99.90;;;;;;5111329;27;20375;-86
2022/07/07 01:37:09;;;;;;;9.32;1.88;;;16.00;99.90;;;;;;5092828;27;20098;-86
2022/07/07 01:39:35;;;;;;;7.40;1.95;;;16.10;99.90;;;;;;5109938;27;20371;-87
2022/07/07 01:42:02;;;;;;;5.40;2.10;;;16.10;99.90;;;;;;5093551;27;20557;-86
2022/07/07 01:44:31;;;;;;;2.58;1.60;;;16.00;99.90;;;;;;5108645;27;20126;-87
2022/07/07 01:46:57;;;;;;;5.97;2.28;;;16.00;99.90;;;;;;5111856;27;20050;-87
2022/07/07 01:49:23;;;;;;;4.13;2.13;;;16.00;99.90;;;;;;5075209;27;20493;-86
2022/07/07 01:51:48;;;;;;;7.57;2.20;;;16.00;99.90;;;;;;5111143;27;20051;-87
2022/07/07 01:54:14;;;;;;;10.15;2.35;;;16.00;99.90;;;;;;5059028;27;20168;-86
2022/07/07 01:56:40;;;;;;;10.93;2.65;;;16.00;99.90;;;;;;5076271;27;20039;-87
2022/07/07 01:59:05;;;;;;;9.45;2.22;;;16.00;99.90;;;;;;5110501;27;20046;-87
2022/07/07 02:01:31;;;;;;;10.40;2.22;;;16.00;99.90;;;;;;5074649;27;20078;-87
2022/07/07 02:03:57;;;;;;;8.25;2.47;;;16.00;99.90;;;;;;5060737;27;20379;-87
2022/07/07 02:06:23;;;;;;;9.23;2.63;;;16.00;99.90;;;;;;5074847;27;20447;-87
2022/07/07 02:08:48;;;;;;;5.47;2.10;;;16.00;99.90;;;;;;5076541;27;20043;-87
2022/07/07 02:11:14;;;;;;;9.48;2.53;;;16.00;99.90;;;;;;5075832;27;20039;-86
2022/07/07 02:13:47;;;;;;;6.97;1.90;;;16.00;99.90;;;;;;5110941;27;20043;-86
2022/07/07 02:16:13;;;;;;;;;;;16.00;99.90;;;;;;5097684;27;20093;-86
2022/07/07 02:18:40;;;;;;;7.72;1.88;;;16.00;99.90;;;;;;5115480;27;19941;-87
2022/07/07 02:21:08;;;;;;;7.03;1.80;;;16.00;99.90;;;;;;5111741;27;20588;-86
2022/07/07 02:23:35;;;;;;;9.57;1.77;;;16.00;99.90;;;;;;5090997;27;20493;-86
2022/07/07 02:26:01;;;;;;;9.07;1.38;;;16.00;99.90;;;;;;5110033;27;20476;-86
2022/07/07 02:28:27;;;;;;;12.15;1.92;;;16.00;99.90;;;;;;5109533;27;20084;-86
2022/07/07 02:30:57;;;;;;;12.00;2.20;;;16.00;99.90;;;;;;5092443;27;20137;-85
2022/07/07 02:33:23;;;;;;;4.22;1.73;;;16.00;99.90;;;;;;5093546;27;20394;-86
2022/07/07 02:35:50;;;;;;;7.60;1.58;;;16.00;99.90;;;;;;5076633;27;20363;-87
2022/07/07 02:38:17;;;;;;;11.55;1.95;;;16.00;99.90;;;;;;5094843;27;20062;-86
2022/07/07 02:40:43;;;;;;;12.13;2.08;;;16.00;99.90;;;;;;5107679;27;20521;-86
2022/07/07 02:43:12;;;;;;;11.65;1.70;;;16.00;99.90;;;;;;5109316;27;20043;-87
2022/07/07 02:45:46;;;;;;;6.95;1.70;;;16.00;99.90;;;;;;5059403;27;20607;-85
2022/07/07 02:48:15;;;;;;;5.00;1.60;;;16.00;99.90;;;;;;5074888;27;20047;-85
2022/07/07 02:50:41;;;;;;;7.70;1.75;;;16.30;99.90;;;;;;5093008;27;20467;-85
2022/07/07 02:53:08;;;;;;;10.95;1.70;;;16.00;99.90;;;;;;5090706;27;20042;-86
2022/07/07 02:55:34;;;;;;;7.95;1.65;;;16.00;99.90;;;;;;5109746;27;20494;-86
2022/07/07 02:58:00;;;;;;;6.13;1.60;;;16.00;99.90;;;;;;5073928;27;20578;-86
2022/07/07 03:00:27;;;;;;;9.00;1.45;;;16.00;99.90;;;;;;5092572;27;20143;-86
2022/07/07 03:02:54;;;;;;;7.60;1.77;;;16.00;99.90;;;;;;5075039;27;20046;-86
2022/07/07 03:05:21;;;;;;;7.85;1.58;;;16.00;99.90;;;;;;5090472;27;20047;-86
2022/07/07 03:07:47;;;;;;;10.98;1.60;;;16.00;99.90;;;;;;5092353;27;20489;-86
2022/07/07 03:10:14;;;;;;;8.85;1.40;;;16.00;99.90;;;;;;5056875;27;20544;-85
2022/07/07 03:12:39;;;;;;;7.43;1.65;;;16.00;99.90;;;;;;5092414;27;20043;-84
2022/07/07 03:15:06;;;;;;;9.43;1.42;;;15.90;99.90;;;;;;5107586;27;20100;-83
2022/07/07 03:17:32;;;;;;;6.32;1.42;;;15.80;99.90;;;;;;5074998;27;20051;-84
2022/07/07 03:19:58;;;;;;;11.98;1.60;;;15.90;99.90;;;;;;5090914;27;20064;-84
2022/07/07 03:22:23;;;;;;;7.65;1.30;;;15.90;99.90;;;;;;5091094;27;20047;-84
2022/07/07 03:24:49;;;;;;;10.23;1.70;;;16.00;99.90;;;;;;5092015;27;20051;-84
2022/07/07 03:27:14;;;;;;;4.68;1.45;;;15.90;99.90;;;;;;5072943;27;20076;-84
2022/07/07 03:29:40;;;;;;;8.20;0.98;;;15.90;99.90;;;;;;5092943;27;20084;-83
2022/07/07 03:32:06;;;;;;;7.18;1.20;;;15.80;99.90;;;;;;5090272;27;20524;-85
2022/07/07 03:34:32;;;;;;;10.70;1.75;;;15.80;99.90;;;;;;5091604;27;20047;-84
2022/07/07 03:36:58;;;;;;;3.45;0.80;;;15.80;99.90;;;;;;5073797;27;20379;-85
2022/07/07 03:39:23;;;;;;;5.18;1.17;;;15.80;99.90;;;;;;5107778;27;20035;-84
2022/07/07 03:41:49;;;;;;;9.55;1.23;;;15.60;99.90;;;;;;5092155;27;20110;-83
2022/07/07 03:44:15;;;;;;;7.25;1.00;;;15.80;99.90;;;;;;5089902;27;20043;-84
2022/07/07 03:46:41;;;;;;;9.18;0.98;;;15.60;99.90;;;;;;5108705;27;20505;-84
2022/07/07 03:49:07;;;;;;;6.38;0.63;;;15.60;99.90;;;;;;5106752;27;20039;-84
2022/07/07 03:51:33;;;;;;;10.65;1.85;;;15.60;99.90;;;;;;5108277;27;20068;-84
2022/07/07 03:53:58;;;;;;;5.65;0.65;;;15.60;99.90;;;;;;5107230;27;20039;-84
2022/07/07 03:56:24;;;;;;;4.78;0.63;;;15.60;99.90;;;;;;5074446;27;20050;-84
2022/07/07 03:58:50;;;;;;;3.45;0.73;;;15.50;99.90;;;;;;5074825;27;20078;-85
2022/07/07 04:01:16;;;;;;;6.55;0.77;;;15.50;99.90;;;;;;5073434;28;20058;-84
2022/07/07 04:03:41;;;;;;;7.43;0.63;;;15.50;99.90;;;;;;5074656;27;20035;-84
2022/07/07 04:06:07;;;;;;;6.20;0.77;;;15.50;99.90;;;;;;5072863;27;20443;-84
2022/07/07 04:08:33;;;;;;;3.08;0.55;;;15.50;99.90;;;;;;5108702;28;20050;-84
2022/07/07 04:10:58;;;;;;;4.95;0.52;;;15.50;99.90;;;;;;5108548;28;20071;-83
2022/07/07 04:13:24;;;;;;;5.22;1.10;;;15.50;99.90;;;;;;5058002;27;20089;-83
2022/07/07 04:15:50;;;;;;;6.68;1.50;;;15.40;99.90;;;;;;5057927;28;20039;-82
2022/07/07 04:18:16;;;;;;;5.05;0.75;;;15.30;99.90;;;;;;5108413;28;20070;-83
2022/07/07 04:20:42;;;;;;;5.22;1.25;;;15.30;99.90;;;;;;5113302;28;20382;-82
2022/07/07 04:23:08;;;;;;;4.95;0.43;;;15.30;99.90;;;;;;5095174;28;20054;-83
2022/07/07 04:25:34;;;;;;;4.85;0.75;;;15.20;99.90;;;;;;5113396;28;20051;-83
2022/07/07 04:27:59;;;;;;;9.10;0.90;;;15.20;99.90;;;;;;5095024;28;20047;-84
2022/07/07 04:30:25;;;;;;;8.80;0.93;;;15.30;99.90;;;;;;5112954;28;20043;-85
2022/07/07 04:32:57;;;;;;;6.38;0.77;;;15.20;99.90;;;;;;5099360;27;20065;-84
2022/07/07 04:35:23;;;;;;;10.17;1.50;;;15.20;99.90;;;;;;5100162;27;20039;-83
2022/07/07 04:37:49;;;;;;;6.15;0.88;;;15.20;99.90;;;;;;5068372;27;20108;-85
2022/07/07 04:40:14;;;;;;;6.72;1.05;;;15.20;99.90;;;;;;5099157;27;20655;-87
2022/07/07 04:42:41;;;;;;;5.82;0.75;;;15.20;99.90;;;;;;5102654;27;20043;-86
2022/07/07 04:45:07;;;;;;;9.07;1.30;;;15.20;99.90;;;;;;5100647;27;20043;-87
2022/07/07 04:47:42;;;;;;;2.85;0.57;;;15.20;99.90;;;;;;5119601;27;20633;-83
2022/07/07 04:50:12;;;;;;;3.47;0.50;;;15.20;99.90;;;;;;5101091;27;20039;-86
2022/07/07 04:52:40;;;;;;;;;;;15.20;99.90;;;;;;5102745;27;20121;-89
2022/07/07 04:55:07;;;;;;;7.65;0.80;;;15.20;99.90;;;;;;5102842;27;19970;-84
2022/07/07 04:57:34;;;;;;;9.48;1.48;;;15.30;99.90;;;;;;5082780;27;20043;-79
2022/07/07 05:00:00;;;;;;;6.80;1.08;;;15.30;99.90;;;;;;5069015;27;20115;-87
2022/07/07 05:02:26;;;;;;;9.27;1.17;;;15.40;99.90;;;;;;5101238;27;20047;-85
2022/07/07 05:04:52;;;;;;;13.00;1.30;;;15.20;99.90;;;;;;5085045;27;20138;-84
2022/07/07 05:07:19;;;;;;;11.13;1.58;;;15.50;99.90;;;;;;5101993;27;20070;-84
2022/07/07 05:09:45;;;;;;;11.00;1.55;;;15.50;99.90;;;;;;5067004;27;20409;-86
2022/07/07 05:12:11;;;;;;;5.18;1.02;;;15.50;99.90;;;;;;5114625;27;20035;-85
2022/07/07 05:14:37;;;;;;;10.93;1.20;;;15.80;99.90;;;;;;5092333;27;20043;-86
2022/07/07 05:17:03;;;;;;;10.10;1.30;;;15.50;99.90;;;;;;5111961;27;20043;-86
2022/07/07 05:19:28;;;;;;;7.78;1.40;;;15.50;99.90;;;;;;5093130;27;20194;-86
2022/07/07 05:21:55;;;;;;;7.05;1.40;;;15.50;99.90;;;;;;5077636;27;20490;-85
2022/07/07 05:24:21;;;;;;;12.18;1.33;;;15.50;99.90;;;;;;5110529;27;20491;-86
2022/07/07 05:26:47;;;;;;;4.15;1.20;;;15.50;99.90;;;;;;5110511;27;20549;-84
2022/07/07 05:29:14;;;;;;;12.32;1.77;;;15.50;99.90;;;;;;5130086;27;20155;-87
2022/07/07 05:31:40;;;;;;;8.75;1.42;;;15.50;99.90;;;;;;5091768;27;20043;-87
2022/07/07 05:34:06;;;;;;;8.40;1.55;;;15.50;99.90;;;;;;5077639;27;20088;-88
2022/07/07 05:36:33;;;;;;;9.80;1.73;;;15.40;99.90;;;;;;5092128;27;20275;-88
2022/07/07 05:38:59;;;;;;;5.70;1.08;;;15.40;99.90;;;;;;5094167;27;20031;-89
2022/07/07 05:41:25;;;;;;;8.27;1.48;;;15.40;99.90;;;;;;5092747;27;20486;-87
2022/07/07 05:43:51;;;;;;;11.38;1.40;;;15.80;99.90;;;;;;5109519;27;20079;-88
2022/07/07 05:46:17;;;;;;;11.05;1.38;;;16.20;99.90;;;;;;5077499;27;20047;-90
2022/07/07 05:48:42;;;;;;;10.43;1.50;;;15.50;99.90;;;;;;5075064;27;20043;-87
2022/07/07 05:51:08;;;;;;;8.65;1.98;;;15.70;99.90;;;;;;5094313;27;20035;-87
2022/07/07 05:53:34;;;;;;;7.30;1.35;;;15.10;99.90;;;;;;5108866;27;20035;-87
2022/07/07 05:56:00;;;;;;;10.30;1.50;;;15.60;99.90;;;;;;5077634;27;20050;-85
2022/07/07 05:58:25;;;;;;;6.40;0.90;;;15.60;99.90;;;;;;5059118;27;20520;-85
2022/07/07 06:00:51;;;;;;;12.05;1.67;;;15.70;99.90;;;;;;5076954;27;20043;-84
2022/07/07 06:03:17;;;;;;;4.82;1.00;;;16.00;99.90;;;;;;5111902;27;20043;-88
2022/07/07 06:05:43;;;;;;;5.47;2.05;;;15.70;99.90;;;;;;5075281;27;20049;-88
2022/07/07 06:08:09;;;;;;;10.13;1.80;;;15.80;99.90;;;;;;5093458;27;20081;-87
2022/07/07 06:10:36;;;;;;;9.45;2.03;;;15.70;99.90;;;;;;5091375;27;20142;-88
2022/07/07 06:13:02;;;;;;;8.80;0.93;;;15.60;99.90;;;;;;5110434;27;20487;-87
2022/07/07 06:15:32;;;;;;;8.20;1.20;;;15.80;99.90;;;;;;5092554;27;20076;-87
2022/07/07 06:18:00;;;;;;;6.65;0.95;;;15.70;99.90;;;;;;5110076;27;20080;-87
2022/07/07 06:20:26;;;;;;;7.43;1.27;;;15.80;99.90;;;;;;5094705;27;20486;-88
2022/07/07 06:22:52;;;;;;;3.88;1.10;;;16.00;99.90;;;;;;5095657;27;20036;-86
2022/07/07 06:25:20;;;;;;;6.32;0.98;;;16.10;99.90;;;;;;5093818;27;20062;-88
2022/07/07 06:27:46;;;;;;;4.53;0.77;;;16.10;99.90;;;;;;5109678;27;20482;-88
2022/07/07 06:30:12;;;;;;;9.32;1.80;;;16.40;99.90;;;;;;5113038;27;20050;-88
2022/07/07 06:32:37;;;;;;;7.07;1.33;;;16.40;99.90;;;;;;5093021;27;20410;-87
2022/07/07 06:35:04;;;;;;;6.55;1.05;;;16.30;99.90;;;;;;5109434;27;20092;-87
2022/07/07 06:37:30;;;;;;;3.72;0.88;;;16.30;99.90;;;;;;5092485;27;20486;-87
2022/07/07 06:39:56;;;;;;;3.60;0.95;;;16.30;99.90;;;;;;5091436;27;20055;-87
2022/07/07 06:42:21;;;;;;;3.15;0.93;;;15.60;99.90;;;;;;5093566;27;20129;-87
2022/07/07 06:44:47;;;;;;;4.68;0.73;;;16.30;99.90;;;;;;5090577;27;20550;-87
2022/07/07 06:47:13;;;;;;;5.28;0.70;;;16.30;99.90;;;;;;5092618;27;20054;-87
2022/07/07 06:49:38;;;;;;;4.45;0.90;;;16.40;99.90;;;;;;5108310;27;20090;-87
2022/07/07 06:52:04;;;;;;;5.18;0.80;;;16.50;99.90;;;;;;5109454;27;20449;-86
2022/07/07 06:54:30;;;;;;;2.10;0.30;;;16.60;99.90;;;;;;5057740;27;20039;-87
2022/07/07 06:56:56;;;;;;;5.90;0.40;;;16.60;99.90;;;;;;5074511;27;20047;-87
2022/07/07 06:59:22;;;;;;;2.65;0.32;;;16.60;99.90;;;;;;5059095;27;20120;-88
2022/07/07 07:01:48;;;;;;;3.55;0.50;;;16.70;99.90;;;;;;5107420;27;20051;-87
2022/07/07 07:04:14;;;;;;;3.85;0.50;;;16.90;99.90;;;;;;5109859;27;20225;-87
2022/07/07 07:06:43;;;;;;;5.15;0.75;;;17.00;99.90;;;;;;5090358;27;20552;-89
2022/07/07 07:09:10;;;;;;;4.13;0.63;;;16.90;99.90;;;;;;5075670;27;20039;-90
2022/07/07 07:11:36;;;;;;;3.45;0.65;;;16.80;99.90;;;;;;5091979;27;20043;-90
2022/07/07 07:14:03;;;;;;;6.90;0.85;;;16.70;99.90;;;;;;5108388;27;20050;-91
2022/07/07 07:16:29;;;;;;;4.60;0.68;;;16.80;99.90;;;;;;5092640;27;20080;-89
2022/07/07 07:18:55;;;;;;;1.30;0.22;;;16.60;99.90;;;;;;5073687;27;20043;-88
2022/07/07 07:21:21;;;;;;;4.63;1.27;;;16.60;99.90;;;;;;5059611;27;20073;-89
2022/07/07 07:23:47;;;;;;;1.15;0.13;;;16.80;99.90;;;;;;5090448;27;20059;-89
2022/07/07 07:26:13;;;;;;;7.22;0.40;;;16.80;99.90;;;;;;5091475;27;20130;-88
2022/07/07 07:28:39;;;;;;;1.00;0.17;;;17.00;99.90;;;;;;5091441;27;20127;-88
2022/07/07 07:31:08;;;;;;;5.28;0.52;;;17.20;99.90;;;;;;5074277;27;20074;-88
2022/07/07 07:33:35;;;;;;;1.42;0.47;;;17.30;99.90;;;;;;5092227;27;20047;-89
2022/07/07 07:36:02;;;;;;;5.25;0.50;;;17.30;99.90;;;;;;5057078;27;20045;-88
2022/07/07 07:38:28;;;;;;;5.38;0.52;;;17.20;99.90;;;;;;5109679;27;20047;-88
2022/07/07 07:40:54;;;;;;;5.97;0.60;;;17.20;99.90;;;;;;5107097;27;20464;-89
2022/07/07 07:43:20;;;;;;;5.03;0.90;;;17.10;99.90;;;;;;5075566;27;20054;-89
2022/07/07 07:45:46;;;;;;;2.65;0.32;;;17.10;99.90;;;;;;5107523;27;20131;-89
2022/07/07 07:48:11;;;;;;;5.45;1.02;;;17.10;99.90;;;;;;5090561;27;20371;-88
2022/07/07 07:50:37;;;;;;;1.38;0.30;;;17.10;99.90;;;;;;5126195;27;20047;-88
2022/07/07 07:53:04;;;;;;;2.50;0.30;;;17.20;99.90;;;;;;5089857;27;20054;-88
2022/07/07 07:55:31;;;;;;;2.65;0.40;;;17.30;99.90;;;;;;5095761;27;20091;-85
2022/07/07 07:57:57;;;;;;;2.88;0.50;;;17.50;99.90;;;;;;5124182;27;20110;-85
2022/07/07 08:00:24;;;;;;;7.57;0.93;;;17.60;99.90;;;;;;5080330;27;20051;-86
2022/07/07 08:02:51;;;;;;;5.78;1.02;;;17.70;99.90;;;;;;5108536;27;20051;-86
2022/07/07 08:05:18;;;;;;;8.07;0.57;;;17.60;99.90;;;;;;5125781;27;20083;-85
2022/07/07 08:07:45;;;;;;;5.38;1.02;;;17.50;99.90;;;;;;5091798;27;20069;-85
2022/07/07 08:10:13;;;;;;;2.72;0.60;;;17.40;99.90;;;;;;5073710;27;20051;-85
2022/07/07 08:12:39;;;;;;;7.13;0.75;;;17.40;99.90;;;;;;5091801;28;20047;-85
2022/07/07 08:15:06;;;;;;;4.85;0.75;;;17.50;99.90;;;;;;5073132;28;20054;-84
2022/07/07 08:17:32;;;;;;;3.83;0.60;;;17.70;99.90;;;;;;5091661;28;20079;-84
2022/07/07 08:19:57;;;;;;;6.30;0.93;;;17.80;99.90;;;;;;5091222;28;20070;-84
2022/07/07 08:22:23;;;;;;;8.13;1.20;;;18.00;99.90;;;;;;5109025;28;20043;-84
2022/07/07 08:24:49;;;;;;;4.40;1.00;;;18.00;99.90;;;;;;5081922;28;20051;-84
2022/07/07 08:27:15;;;;;;;5.85;0.88;;;18.00;99.90;;;;;;5083756;28;20111;-84
2022/07/07 08:29:40;;;;;;;6.97;1.25;;;17.90;99.90;;;;;;5101055;28;20040;-84
2022/07/07 08:32:08;;;;;;;9.43;0.80;;;17.90;99.90;;;;;;5082981;28;20039;-83
2022/07/07 08:34:34;;;;;;;4.32;1.38;;;17.90;99.90;;;;;;5097527;28;20040;-84
2022/07/07 08:37:00;;;;;;;3.45;0.75;;;17.90;99.90;;;;;;5118427;28;20031;-85
2022/07/07 08:39:26;;;;;;;9.20;1.27;;;17.90;99.90;;;;;;5108816;28;20054;-85
2022/07/07 08:41:52;;;;;;;5.75;0.93;;;18.00;99.90;;;;;;5097074;27;20043;-87
2022/07/07 08:44:18;;;;;;;11.95;1.10;;;18.10;99.90;;;;;;5130709;27;20036;-84
2022/07/07 08:46:44;;;;;;;9.13;1.20;;;18.00;99.90;;;;;;5098586;28;20107;-84
2022/07/07 08:49:10;;;;;;;4.65;1.15;;;18.10;99.90;;;;;;5106697;28;20039;-85
2022/07/07 08:51:44;;;;;;;4.32;1.38;;;18.30;99.90;;;;;;5114762;28;20043;-85
2022/07/07 08:54:12;;;;;;;7.35;1.30;;;18.50;99.90;;;;;;5076641;28;20083;-85
2022/07/07 08:56:38;;;;;;;4.70;1.20;;;18.50;99.90;;;;;;5109635;28;20027;-85
2022/07/07 08:59:09;;;;;;;5.55;1.10;;;18.30;99.90;;;;;;5109489;28;20047;-86
2022/07/07 09:01:35;;;;;;;7.63;1.30;;;18.10;99.90;;;;;;5090981;28;20500;-85
2022/07/07 09:04:02;;;;;;;6.32;1.02;;;18.60;99.90;;;;;;5093627;28;20387;-85
2022/07/07 09:06:29;;;;;;;5.18;0.50;;;18.00;99.90;;;;;;5075635;28;20039;-85
2022/07/07 09:08:55;;;;;;;3.85;0.50;;;17.90;99.90;;;;;;5092656;28;20565;-85
2022/07/07 09:11:39;;;;;;;2.50;0.40;;;17.90;99.90;;;;;;5108263;28;20436;-85
2022/07/07 09:14:16;;;;;;;4.70;0.50;;;18.00;99.90;;;;;;5073057;28;20050;-85
2022/07/07 09:16:42;;;;;;;2.45;1.38;;;18.20;99.90;;;;;;5110059;28;20538;-86
2022/07/07 09:19:19;;;;;;;4.03;0.55;;;18.30;99.90;;;;;;5093882;27;20039;-85
2022/07/07 09:21:45;;;;;;;5.72;0.93;;;18.30;99.90;;;;;;5096332;27;20050;-85
2022/07/07 09:24:11;;;;;;;4.80;0.73;;;18.20;99.90;;;;;;5094202;27;20506;-84
2022/07/07 09:26:45;;;;;;;2.20;0.60;;;18.30;99.90;;;;;;5111310;27;20039;-86
2022/07/07 09:29:14;;;;;;;5.05;1.65;;;18.40;99.90;;;;;;5112572;27;20077;-85
2022/07/07 09:32:03;;;;;;;4.82;1.20;;;18.50;99.90;;;;;;5110841;27;20427;-85
2022/07/07 09:34:33;;;;;;;6.32;0.90;;;18.40;99.90;;;;;;5095523;27;20051;-86
2022/07/07 09:39:46;;;;;;;4.60;0.70;;;18.00;99.90;;;;;;5115287;27;20047;-86
2022/07/07 09:42:30;;;;;;;6.15;1.17;;;17.70;99.90;;;;;;5103614;27;20047;-87
2022/07/07 09:44:55;;;;;;;6.25;1.25;;;17.50;99.90;;;;;;5115646;27;20047;-87
2022/07/07 09:47:23;;;;;;;4.97;0.77;;;17.50;99.90;;;;;;5112544;27;20046;-85
2022/07/07 09:50:09;;;;;;;5.88;0.60;;;17.60;99.90;;;;;;5096314;27;20043;-85
2022/07/07 09:52:37;;;;;;;3.17;0.55;;;17.70;99.90;;;;;;5122654;27;20169;-84
2022/07/07 09:55:09;;;;;;;12.38;0.73;;;17.80;99.90;;;;;;5097268;27;20075;-86
2022/07/07 09:57:37;;;;;;;6.18;1.75;;;17.90;99.90;;;;;;5110001;27;20085;-86
2022/07/07 10:00:05;;;;;;;4.93;0.90;;;17.90;99.90;;;;;;5093935;27;20050;-86
2022/07/07 10:02:31;;;;;;;4.18;0.50;;;18.00;99.90;;;;;;5093352;27;20081;-85
2022/07/07 10:05:00;;;;;;;2.80;0.50;;;18.10;99.90;;;;;;5093111;27;20046;-85
2022/07/07 10:07:29;;;;;;;5.43;0.65;;;17.60;99.90;;;;;;5093766;27;20031;-87
2022/07/07 10:09:57;;;;;;;4.28;0.68;;;18.00;99.90;;;;;;5075447;27;20553;-86
2022/07/07 10:12:28;;;;;;;7.80;0.88;;;18.00;99.90;;;;;;5093895;27;20093;-86
2022/07/07 10:15:03;;;;;;;8.40;1.17;;;18.10;99.90;;;;;;5091911;27;20050;-85
2022/07/07 10:17:30;;;;;;;3.60;0.82;;;18.20;99.90;;;;;;5110233;27;20046;-85
2022/07/07 10:19:56;;;;;;;12.63;1.30;;;18.20;99.90;;;;;;5109611;27;20043;-85
2022/07/07 10:22:27;;;;;;;7.85;1.17;;;18.20;99.90;;;;;;5093105;27;20046;-85
2022/07/07 10:24:54;;;;;;;8.15;1.52;;;18.00;99.90;;;;;;5073787;28;20498;-85
2022/07/07 10:27:25;;;;;;;7.00;1.95;;;17.80;99.90;;;;;;5104886;28;20576;-85
2022/07/07 10:29:59;;;;;;;9.38;1.40;;;17.70;99.90;;;;;;5089951;28;20153;-85
2022/07/07 10:32:52;;;;;;;9.18;1.55;;;17.60;99.90;;;;;;5088406;28;20127;-84
2022/07/07 10:35:18;;;;;;;;;;;17.60;99.90;;;;;;5089043;28;20044;-84
2022/07/07 10:37:48;;;;;;;16.23;1.45;;;17.60;99.90;;;;;;5106678;28;20026;-84
2022/07/07 10:40:28;;;;;;;12.63;2.53;;;17.70;99.90;;;;;;5087769;28;20036;-85
2022/07/07 10:43:28;;;;;;;9.48;1.92;;;17.50;99.90;;;;;;5106498;28;20047;-85
2022/07/07 10:45:55;;;;;;;12.75;1.70;;;17.50;99.90;;;;;;5106527;28;20039;-84
2022/07/07 10:48:43;;;;;;;12.20;1.58;;;17.50;99.90;;;;;;5105315;28;20127;-84
2022/07/07 10:51:18;;;;;;;13.43;2.38;;;17.40;99.90;;;;;;5089576;28;20558;-85
2022/07/07 10:54:06;;;;;;;9.20;1.58;;;17.50;99.90;;;;;;5087861;28;20035;-84
2022/07/07 10:56:51;;;;;;;12.35;2.05;;;17.50;99.90;;;;;;5088947;28;20035;-85
2022/07/07 10:59:17;;;;;;;9.70;1.70;;;17.60;99.90;;;;;;5106209;28;20047;-84
2022/07/07 11:02:08;;;;;;;13.30;2.65;;;17.70;99.90;;;;;;5087337;28;20048;-86
2022/07/07 11:04:44;;;;;;;12.05;1.27;;;17.70;99.90;;;;;;5071632;28;20134;-85
2022/07/07 11:07:15;;;;;;;11.98;1.77;;;17.70;99.90;;;;;;5089013;28;20176;-84
2022/07/07 11:09:59;;;;;;;14.27;1.60;;;17.70;99.90;;;;;;5087100;28;20047;-84
2022/07/07 11:12:47;;;;;;;11.27;1.35;;;17.70;99.90;;;;;;5105890;28;20093;-84
2022/07/07 11:15:22;;;;;;;14.10;1.85;;;17.60;99.90;;;;;;5104797;28;20522;-84
2022/07/07 11:17:56;;;;;;;11.07;1.75;;;17.70;99.90;;;;;;5088466;28;20442;-84
2022/07/07 11:20:24;;;;;;;13.05;1.55;;;17.60;99.90;;;;;;5088587;28;20051;-85
2022/07/07 11:23:11;;;;;;;10.35;1.45;;;17.60;99.90;;;;;;5087740;27;20486;-86
2022/07/07 11:25:38;;;;;;;9.20;1.42;;;17.70;99.90;;;;;;5126155;27;20047;-85
2022/07/07 11:28:08;;;;;;;6.18;1.52;;;17.80;99.90;;;;;;5090968;27;20459;-85
2022/07/07 11:30:35;;;;;;;14.85;1.42;;;17.90;99.90;;;;;;5108608;27;20073;-85
2022/07/07 11:33:02;;;;;;;5.28;1.20;;;18.00;99.90;;;;;;5092509;27;20420;-84
2022/07/07 11:35:35;;;;;;;6.32;0.80;;;18.00;99.90;;;;;;5107153;27;20050;-85
2022/07/07 11:38:03;;;;;;;1.85;0.80;;;18.20;99.90;;;;;;5077188;27;20074;-85
2022/07/07 11:40:30;;;;;;;4.82;0.82;;;18.40;99.90;;;;;;5073496;27;20063;-88
2022/07/07 11:43:00;;;;;;;7.45;0.93;;;18.40;99.90;;;;;;5110765;27;20125;-86
2022/07/07 11:45:27;;;;;;;6.28;1.80;;;18.50;99.90;;;;;;5083615;27;20050;-88
2022/07/07 11:47:59;;;;;;;6.97;1.20;;;18.60;99.90;;;;;;5110624;27;20096;-87
2022/07/07 11:50:27;;;;;;;5.53;0.93;;;18.80;99.90;;;;;;5093078;27;20074;-86
2022/07/07 11:52:55;;;;;;;4.55;1.33;;;18.80;99.90;;;;;;5090553;27;20055;-85
2022/07/07 11:55:22;;;;;;;7.65;0.90;;;19.00;99.90;;;;;;5092163;27;20399;-87
2022/07/07 11:57:52;;;;;;;5.07;1.20;;;19.30;99.90;;;;;;5089845;27;20086;-85
2022/07/07 12:00:23;;;;;;;5.18;1.13;;;19.50;99.90;;;;;;5107653;27;20046;-86
2022/07/07 12:02:50;;;;;;;7.78;1.63;;;19.50;99.90;;;;;;5108266;27;20050;-85
2022/07/07 12:05:17;;;;;;;7.35;1.60;;;19.50;99.90;;;;;;5089931;27;20088;-85
2022/07/07 12:07:58;;;;;;;15.70;1.83;;;19.30;99.90;;;;;;5075043;27;20082;-86
2022/07/07 12:10:34;;;;;;;9.73;1.27;;;19.10;99.90;;;;;;5089605;27;20581;-86
2022/07/07 12:13:08;;;;;;;10.73;1.90;;;19.00;99.90;;;;;;5091085;28;20126;-87
2022/07/07 12:15:48;;;;;;;9.00;1.30;;;19.00;99.90;;;;;;5090696;28;20051;-86
2022/07/07 12:18:31;;;;;;;10.55;1.05;;;19.00;99.90;;;;;;5089898;27;20520;-83
2022/07/07 12:21:01;;;;;;;7.65;1.45;;;19.10;99.90;;;;;;5091587;28;20085;-86
2022/07/07 12:23:27;;;;;;;4.05;0.95;;;19.10;99.90;;;;;;5106334;28;20134;-89
2022/07/07 12:26:05;;;;;;;6.35;1.23;;;19.00;99.90;;;;;;5107499;28;20154;-85
2022/07/07 12:28:37;;;;;;;6.75;1.33;;;19.10;99.90;;;;;;5107759;28;20486;-88
2022/07/07 12:31:04;;;;;;;8.60;1.10;;;19.20;99.90;;;;;;5089519;28;20047;-85
2022/07/07 12:33:40;;;;;;;9.23;1.85;;;19.20;99.90;;;;;;5091141;28;20039;-85
2022/07/07 12:36:08;;;;;;;8.02;1.00;;;19.20;99.90;;;;;;5106635;28;20039;-85
2022/07/07 12:38:36;;;;;;;15.15;1.30;;;19.10;99.90;;;;;;5090926;28;20130;-87
2022/07/07 12:41:02;;;;;;;6.90;1.38;;;19.10;99.90;;;;;;5090788;28;20397;-86
2022/07/07 12:43:33;;;;;;;9.77;1.48;;;19.10;99.90;;;;;;5073818;28;20043;-87
2022/07/07 12:46:10;;;;;;;9.10;1.70;;;18.90;99.90;;;;;;5091081;28;20047;-86
2022/07/07 12:48:50;;;;;;;9.05;1.65;;;18.70;99.90;;;;;;5089414;28;20394;-85
2022/07/07 12:51:22;;;;;;;6.82;1.42;;;18.50;99.90;;;;;;5090893;27;20092;-85
2022/07/07 12:53:47;;;;;;;16.83;1.92;;;18.30;99.90;;;;;;5110511;27;20133;-87